createdAt,value
2019-05-21T00:00:19.885Z,7.03
2019-05-21T00:02:45.681Z,7.67
2019-05-21T00:05:11.463Z,8.20
2019-05-21T00:07:37.253Z,7.77
2019-05-21T00:10:06.344Z,8.73
2019-05-21T00:12:32.148Z,7.73
2019-05-21T00:14:57.928Z,7.97
2019-05-21T00:17:23.828Z,7.70
2019-05-21T00:19:49.602Z,6.97
2019-05-21T00:22:15.394Z,7.17
2019-05-21T00:24:41.225Z,8.43
2019-05-21T00:27:07.002Z,7.23
2019-05-21T00:30:10.156Z,8.47
2019-05-21T00:33:13.659Z,7.40
2019-05-21T00:36:18.376Z,7.70
2019-05-21T00:39:21.907Z,8.10
2019-05-21T00:42:00.655Z,8.17
2019-05-21T00:44:28.139Z,8.07
2019-05-21T00:46:53.937Z,8.37
2019-05-21T00:49:19.718Z,8.60
2019-05-21T00:51:45.694Z,8.83
2019-05-21T00:54:11.482Z,9.03
2019-05-21T00:56:37.272Z,9.40
2019-05-21T00:59:03.056Z,9.57
2019-05-21T01:01:28.831Z,9.10
2019-05-21T01:03:54.636Z,8.83
2019-05-21T01:06:20.456Z,9.10
2019-05-21T01:08:46.229Z,8.80
2019-05-21T01:11:12.172Z,9.27
2019-05-21T01:13:37.985Z,8.67
2019-05-21T01:16:03.812Z,8.67
2019-05-21T01:18:29.627Z,8.90
2019-05-21T01:20:55.422Z,9.43
2019-05-21T01:23:21.225Z,9.30
2019-05-21T01:25:47.024Z,9.53
2019-05-21T01:28:12.846Z,9.70
2019-05-21T01:30:38.632Z,9.30
2019-05-21T01:33:04.429Z,9.73
2019-05-21T01:35:30.217Z,10.90
2019-05-21T01:37:56.011Z,9.90
2019-05-21T01:40:21.801Z,10.13
2019-05-21T01:42:47.626Z,9.37
2019-05-21T01:45:13.405Z,11.17
2019-05-21T01:47:39.206Z,11.07
2019-05-21T01:50:05.089Z,11.33
2019-05-21T01:52:30.901Z,11.83
2019-05-21T01:54:56.690Z,11.90
2019-05-21T01:57:22.489Z,11.87
2019-05-21T01:59:48.305Z,13.20
2019-05-21T02:02:14.110Z,12.73
2019-05-21T02:04:39.902Z,13.77
2019-05-21T02:07:05.710Z,12.90
2019-05-21T02:09:33.420Z,12.50
2019-05-21T02:11:59.216Z,13.40
2019-05-21T02:14:25.023Z,13.30
2019-05-21T02:16:50.813Z,13.43
2019-05-21T02:19:16.625Z,14.00
2019-05-21T02:21:42.432Z,14.10
2019-05-21T02:24:08.255Z,13.93
2019-05-21T02:26:34.063Z,14.37
2019-05-21T02:28:59.852Z,14.27
2019-05-21T02:31:25.649Z,14.37
2019-05-21T02:33:51.434Z,15.87
2019-05-21T02:36:17.222Z,18.03
2019-05-21T02:38:43.034Z,17.57
2019-05-21T02:41:08.801Z,19.60
2019-05-21T02:43:34.906Z,18.93
2019-05-21T02:46:00.699Z,18.70
2019-05-21T02:48:26.481Z,19.93
2019-05-21T02:50:52.320Z,19.43
2019-05-21T02:53:18.117Z,20.00
2019-05-21T02:55:43.914Z,21.17
2019-05-21T02:58:09.716Z,23.23
2019-05-21T03:00:42.951Z,22.80
2019-05-21T03:03:10.652Z,24.57
2019-05-21T03:05:36.464Z,23.73
2019-05-21T03:08:02.250Z,23.83
2019-05-21T03:10:28.162Z,28.93
2019-05-21T03:12:53.950Z,26.73
2019-05-21T03:15:19.734Z,28.50
2019-05-21T03:17:45.543Z,29.43
2019-05-21T03:20:11.545Z,31.17
2019-05-21T03:22:37.325Z,30.67
2019-05-21T03:25:04.801Z,28.93
2019-05-21T03:27:30.622Z,32.03
2019-05-21T03:29:56.415Z,32.73
2019-05-21T03:32:22.215Z,32.67
2019-05-21T03:34:48.022Z,33.70
2019-05-21T03:37:13.834Z,35.73
2019-05-21T03:39:39.619Z,36.17
2019-05-21T03:42:05.410Z,30.37
2019-05-21T03:44:31.192Z,34.67
2019-05-21T03:46:56.988Z,35.97
2019-05-21T03:49:23.777Z,35.70
2019-05-21T03:51:49.588Z,37.83
2019-05-21T03:54:15.362Z,38.20
2019-05-21T03:56:41.181Z,39.30
2019-05-21T03:59:06.968Z,37.60
2019-05-21T04:01:32.761Z,35.47
2019-05-21T04:03:58.578Z,39.57
2019-05-21T04:06:28.273Z,37.77
2019-05-21T04:08:52.192Z,40.53
2019-05-21T04:11:17.989Z,39.23
2019-05-21T04:13:43.801Z,43.07
2019-05-21T04:16:14.057Z,40.70
2019-05-21T04:18:47.329Z,41.60
2019-05-21T04:21:13.123Z,41.27
2019-05-21T04:23:38.928Z,41.67
2019-05-21T04:26:04.727Z,43.37
2019-05-21T04:28:30.561Z,44.70
2019-05-21T04:30:56.328Z,44.57
2019-05-21T04:33:22.118Z,41.43
2019-05-21T04:35:47.902Z,45.70
2019-05-21T04:38:13.723Z,48.07
2019-05-21T04:40:39.519Z,44.43
2019-05-21T04:43:05.306Z,42.40
2019-05-21T04:45:31.102Z,40.83
2019-05-21T04:47:56.881Z,47.97
2019-05-21T04:50:22.699Z,47.13
2019-05-21T04:52:48.508Z,46.23
2019-05-21T04:55:14.314Z,42.97
2019-05-21T04:57:40.101Z,49.33
2019-05-21T05:00:06.311Z,43.57
2019-05-21T05:02:32.095Z,36.90
2019-05-21T05:04:57.882Z,40.57
2019-05-21T05:07:28.045Z,39.00
2019-05-21T05:09:51.362Z,37.43
2019-05-21T05:12:17.168Z,38.87
2019-05-21T05:14:42.980Z,38.53
2019-05-21T05:17:08.773Z,39.17
2019-05-21T05:19:34.621Z,42.53
2019-05-21T05:22:00.398Z,39.37
2019-05-21T05:24:26.171Z,40.90
2019-05-21T05:26:51.952Z,40.57
2019-05-21T05:29:17.758Z,44.63
2019-05-21T05:31:43.537Z,40.30
2019-05-21T05:34:09.334Z,38.57
2019-05-21T05:36:35.138Z,37.97
2019-05-21T05:39:00.941Z,36.57
2019-05-21T05:41:26.760Z,37.00
2019-05-21T05:43:52.565Z,36.27
2019-05-21T05:46:18.377Z,37.17
2019-05-21T05:48:46.099Z,34.30
2019-05-21T05:51:11.912Z,32.43
2019-05-21T05:53:56.310Z,31.47
2019-05-21T05:56:22.132Z,28.57
2019-05-21T05:58:47.930Z,26.83
2019-05-21T06:01:13.746Z,25.23
2019-05-21T06:03:39.545Z,26.30
2019-05-21T06:06:05.340Z,24.70
2019-05-21T06:08:31.136Z,26.37
2019-05-21T06:10:56.931Z,23.27
2019-05-21T06:13:22.733Z,22.73
2019-05-21T06:15:48.527Z,22.20
2019-05-21T06:18:14.357Z,22.80
2019-05-21T06:20:40.156Z,20.47
2019-05-21T06:23:05.977Z,20.53
2019-05-21T06:25:31.789Z,21.50
2019-05-21T06:27:57.576Z,20.03
2019-05-21T06:30:23.359Z,20.13
2019-05-21T06:32:49.147Z,21.07
2019-05-21T06:35:15.432Z,19.70
2019-05-21T06:37:41.230Z,20.87
2019-05-21T06:40:07.330Z,20.17
2019-05-21T06:42:33.122Z,19.93
2019-05-21T06:44:58.902Z,20.37
2019-05-21T06:47:24.710Z,19.17
2019-05-21T06:49:50.509Z,19.23
2019-05-21T06:52:16.573Z,19.20
2019-05-21T06:54:42.378Z,19.00
2019-05-21T06:57:08.196Z,18.40
2019-05-21T06:59:33.993Z,17.23
2019-05-21T07:01:59.786Z,18.50
2019-05-21T07:04:25.588Z,18.00
2019-05-21T07:06:51.391Z,18.77
2019-05-21T07:09:17.193Z,18.03
2019-05-21T07:11:43.015Z,17.63
2019-05-21T07:14:08.910Z,16.53
2019-05-21T07:16:34.794Z,16.17
2019-05-21T07:19:04.381Z,16.83
2019-05-21T07:21:30.208Z,17.00
2019-05-21T07:23:56.034Z,16.87
2019-05-21T07:26:21.817Z,16.67
2019-05-21T07:28:47.630Z,16.83
2019-05-21T07:31:17.248Z,17.23
2019-05-21T07:33:41.138Z,17.60
2019-05-21T07:36:06.920Z,17.47
2019-05-21T07:38:32.729Z,18.37
2019-05-21T07:40:58.608Z,17.80
2019-05-21T07:43:24.499Z,17.47
2019-05-21T07:45:50.261Z,18.00
2019-05-21T07:48:16.057Z,16.80
2019-05-21T07:50:41.866Z,17.67
2019-05-21T07:53:07.659Z,16.50
2019-05-21T07:55:33.490Z,16.77
2019-05-21T07:57:59.287Z,17.20
2019-05-21T08:00:25.307Z,17.73
2019-05-21T08:02:51.089Z,17.67
2019-05-21T08:05:16.896Z,18.03
2019-05-21T08:07:42.687Z,18.00
2019-05-21T08:10:08.602Z,16.67
2019-05-21T08:12:39.304Z,16.43
2019-05-21T08:15:04.583Z,16.27
2019-05-21T08:17:30.374Z,17.67
2019-05-21T08:20:08.087Z,16.07
2019-05-21T08:22:23.875Z,16.73
2019-05-21T08:24:49.689Z,16.23
2019-05-21T08:27:15.489Z,18.73
2019-05-21T08:29:41.316Z,18.77
2019-05-21T08:32:07.114Z,19.20
2019-05-21T08:34:32.916Z,18.63
2019-05-21T08:36:58.735Z,19.60
2019-05-21T08:39:28.661Z,18.97
2019-05-21T08:41:52.191Z,18.40
2019-05-21T08:44:17.990Z,17.40
2019-05-21T08:46:43.782Z,18.20
2019-05-21T08:49:09.559Z,17.27
2019-05-21T08:51:35.376Z,17.97
2019-05-21T08:54:01.151Z,18.00
2019-05-21T08:56:26.977Z,18.70
2019-05-21T08:58:52.750Z,18.07
2019-05-21T09:01:18.565Z,18.03
2019-05-21T09:03:44.349Z,17.30
2019-05-21T09:06:10.151Z,16.73
2019-05-21T09:08:35.930Z,17.77
2019-05-21T09:11:01.748Z,19.67
2019-05-21T09:13:27.552Z,17.67
2019-05-21T09:15:53.631Z,18.03
2019-05-21T09:18:19.445Z,17.73
2019-05-21T09:20:45.227Z,17.67
2019-05-21T09:23:11.022Z,17.90
2019-05-21T09:25:36.832Z,18.87
2019-05-21T09:28:02.836Z,17.37
2019-05-21T09:30:28.636Z,17.90
2019-05-21T09:32:54.427Z,17.47
2019-05-21T09:35:20.202Z,17.53
2019-05-21T09:37:45.992Z,17.07
2019-05-21T09:40:12.392Z,16.83
2019-05-21T09:42:38.265Z,17.93
2019-05-21T09:45:05.996Z,18.03
2019-05-21T09:47:31.794Z,18.77
2019-05-21T09:49:57.595Z,18.03
2019-05-21T09:52:24.335Z,18.37
2019-05-21T09:54:50.316Z,17.50
2019-05-21T09:57:18.055Z,17.10
2019-05-21T09:59:48.433Z,18.80
2019-05-21T10:02:21.990Z,18.03
2019-05-21T10:04:47.786Z,18.07
2019-05-21T10:07:13.567Z,18.33
2019-05-21T10:09:39.361Z,19.20
2019-05-21T10:12:05.333Z,18.40
2019-05-21T10:14:34.075Z,18.67
2019-05-21T10:16:58.902Z,17.67
2019-05-21T10:19:24.708Z,19.97
2019-05-21T10:21:50.513Z,17.97
2019-05-21T10:24:16.326Z,20.50
2019-05-21T10:26:42.119Z,20.57
2019-05-21T10:29:07.915Z,20.40
2019-05-21T10:31:33.697Z,19.67
2019-05-21T10:33:59.488Z,19.77
2019-05-21T10:36:25.298Z,20.77
2019-05-21T10:38:51.124Z,19.00
2019-05-21T10:41:16.918Z,19.97
2019-05-21T10:43:42.709Z,19.07
2019-05-21T10:46:08.895Z,18.43
2019-05-21T10:48:34.709Z,20.67
2019-05-21T10:51:00.497Z,21.53
2019-05-21T10:53:26.390Z,22.40
2019-05-21T10:55:52.922Z,19.87
2019-05-21T10:58:18.767Z,20.67
2019-05-21T11:00:46.429Z,19.67
2019-05-21T11:03:30.501Z,20.10
2019-05-21T11:06:09.516Z,22.27
2019-05-21T11:08:25.517Z,20.43
2019-05-21T11:10:51.549Z,22.50
2019-05-21T11:13:17.313Z,22.10
2019-05-21T11:15:43.130Z,20.37
2019-05-21T11:18:11.022Z,21.07
2019-05-21T11:20:36.642Z,21.83
2019-05-21T11:23:02.720Z,20.80
2019-05-21T11:25:28.513Z,21.33
2019-05-21T11:27:54.308Z,20.83
2019-05-21T11:30:20.416Z,21.90
2019-05-21T11:32:48.074Z,21.33
2019-05-21T11:35:15.304Z,22.40
2019-05-21T11:37:41.107Z,21.80
2019-05-21T11:40:08.651Z,21.53
2019-05-21T11:42:34.807Z,22.57
2019-05-21T11:45:00.604Z,23.70
2019-05-21T11:47:26.403Z,22.30
2019-05-21T11:49:52.211Z,22.00
2019-05-21T11:52:18.011Z,21.33
2019-05-21T11:54:43.807Z,22.53
2019-05-21T11:57:09.619Z,21.50
2019-05-21T11:59:35.403Z,21.17
2019-05-21T12:02:01.199Z,21.87
2019-05-21T12:04:26.979Z,21.37
2019-05-21T12:06:52.852Z,23.87
2019-05-21T12:09:18.645Z,21.17
2019-05-21T12:11:44.445Z,21.43
2019-05-21T12:14:10.239Z,22.83
2019-05-21T12:16:36.266Z,20.43
2019-05-21T12:19:02.238Z,20.87
2019-05-21T12:21:28.052Z,24.90
2019-05-21T12:23:53.871Z,20.60
2019-05-21T12:26:19.661Z,21.93
2019-05-21T12:28:45.461Z,22.23
2019-05-21T12:31:11.280Z,23.30
2019-05-21T12:33:37.082Z,21.97
2019-05-21T12:36:03.893Z,20.57
2019-05-21T12:38:29.685Z,21.00
2019-05-21T12:40:55.472Z,22.07
2019-05-21T12:43:21.253Z,22.47
2019-05-21T12:45:47.151Z,21.80
2019-05-21T12:48:12.970Z,20.03
2019-05-21T12:50:38.768Z,19.40
2019-05-21T12:53:04.574Z,20.80
2019-05-21T12:55:30.359Z,20.33
2019-05-21T12:57:56.166Z,20.13
2019-05-21T13:00:25.787Z,19.57
2019-05-21T13:02:51.597Z,19.93
2019-05-21T13:05:17.392Z,21.30
2019-05-21T13:07:43.188Z,20.53
2019-05-21T13:10:09.059Z,19.43
2019-05-21T13:12:34.874Z,19.53
2019-05-21T13:15:00.676Z,19.57
2019-05-21T13:17:26.486Z,18.67
2019-05-21T13:19:52.322Z,20.50
2019-05-21T13:22:18.101Z,19.80
2019-05-21T13:24:43.876Z,20.80
2019-05-21T13:27:09.694Z,27.17
2019-05-21T13:29:35.578Z,28.47
2019-05-21T13:32:01.419Z,30.93
2019-05-21T13:34:27.238Z,29.67
2019-05-21T13:36:53.033Z,29.23
2019-05-21T13:39:18.845Z,31.00
2019-05-21T13:41:44.645Z,29.80
2019-05-21T13:44:10.466Z,32.47
2019-05-21T13:46:36.255Z,33.20
2019-05-21T13:49:02.070Z,34.27
2019-05-21T13:51:27.876Z,34.27
2019-05-21T13:53:53.689Z,33.97
2019-05-21T13:56:19.470Z,33.03
2019-05-21T13:58:45.283Z,34.10
2019-05-21T14:01:15.765Z,33.00
2019-05-21T14:03:39.820Z,34.00
2019-05-21T14:06:05.601Z,33.70
2019-05-21T14:08:31.515Z,35.33
2019-05-21T14:10:57.303Z,37.40
2019-05-21T14:13:23.106Z,36.23
2019-05-21T14:15:49.649Z,32.17
2019-05-21T14:18:15.465Z,31.30
2019-05-21T14:20:41.267Z,30.80
2019-05-21T14:23:07.149Z,34.63
2019-05-21T14:25:32.960Z,34.23
2019-05-21T14:27:58.746Z,34.70
2019-05-21T14:30:24.558Z,32.60
2019-05-21T14:32:50.362Z,33.97
2019-05-21T14:35:16.162Z,37.17
2019-05-21T14:37:42.000Z,33.30
2019-05-21T14:40:08.685Z,33.03
2019-05-21T14:42:34.531Z,36.17
2019-05-21T14:45:00.320Z,35.90
2019-05-21T14:47:26.103Z,36.30
2019-05-21T14:49:51.913Z,31.80
2019-05-21T14:52:17.761Z,31.23
2019-05-21T14:54:43.557Z,34.23
2019-05-21T14:57:12.125Z,30.40
2019-05-21T14:59:38.317Z,31.50
2019-05-21T15:02:04.319Z,32.03
2019-05-21T15:04:32.090Z,33.50
2019-05-21T15:06:58.079Z,35.53
2019-05-21T15:09:23.894Z,33.87
2019-05-21T15:11:49.698Z,34.63
2019-05-21T15:14:15.493Z,33.43
2019-05-21T15:16:41.428Z,37.03
2019-05-21T15:19:07.302Z,37.50
2019-05-21T15:21:35.016Z,36.07
2019-05-21T15:24:01.348Z,39.73
2019-05-21T15:26:27.687Z,41.77
2019-05-21T15:28:53.496Z,38.97
2019-05-21T15:31:19.388Z,44.30
2019-05-21T15:33:45.190Z,38.67
2019-05-21T15:36:10.982Z,39.87
2019-05-21T15:38:49.243Z,40.70
2019-05-21T15:41:10.222Z,38.30
2019-05-21T15:43:32.175Z,41.23
2019-05-21T15:45:57.974Z,38.87
2019-05-21T15:48:26.595Z,39.63
2019-05-21T15:50:51.458Z,45.53
2019-05-21T15:53:17.252Z,43.37
2019-05-21T15:55:43.065Z,39.40
2019-05-21T15:58:08.873Z,39.07
2019-05-21T16:00:34.787Z,41.07
2019-05-21T16:03:00.641Z,44.43
2019-05-21T16:05:26.430Z,41.70
2019-05-21T16:07:52.224Z,38.83
2019-05-21T16:10:18.056Z,47.33
2019-05-21T16:12:43.992Z,43.07
2019-05-21T16:15:10.050Z,42.07
2019-05-21T16:17:35.851Z,47.83
2019-05-21T16:20:03.858Z,44.37
2019-05-21T16:22:29.665Z,42.83
2019-05-21T16:24:55.479Z,44.23
2019-05-21T16:27:21.292Z,41.47
2019-05-21T16:29:47.089Z,44.63
2019-05-21T16:32:13.016Z,46.33
2019-05-21T16:34:38.910Z,39.00
2019-05-21T16:37:04.721Z,39.20
2019-05-21T16:39:31.009Z,40.43
2019-05-21T16:41:56.829Z,42.33
2019-05-21T16:44:22.625Z,36.50
2019-05-21T16:46:48.432Z,37.97
2019-05-21T16:49:14.218Z,41.53
2019-05-21T16:51:43.324Z,39.23
2019-05-21T16:54:07.866Z,37.73
2019-05-21T16:56:33.651Z,42.10
2019-05-21T16:58:59.574Z,42.00
2019-05-21T17:01:25.376Z,48.93
2019-05-21T17:03:59.488Z,46.47
2019-05-21T17:06:18.859Z,56.13
2019-05-21T17:08:44.722Z,56.33
2019-05-21T17:11:10.547Z,53.07
2019-05-21T17:13:36.359Z,68.00
2019-05-21T17:16:03.165Z,61.70
2019-05-21T17:18:28.993Z,61.93
2019-05-21T17:20:54.926Z,79.13
2019-05-21T17:23:20.733Z,62.87
2019-05-21T17:25:46.542Z,73.53
2019-05-21T17:28:12.350Z,66.40
2019-05-21T17:30:38.236Z,65.23
2019-05-21T17:33:04.048Z,82.63
2019-05-21T17:35:29.905Z,61.57
2019-05-21T17:37:55.703Z,82.10
2019-05-21T17:40:21.503Z,65.87
2019-05-21T17:42:47.391Z,59.33
2019-05-21T17:45:13.312Z,57.03
2019-05-21T17:47:39.151Z,50.70
2019-05-21T17:50:06.246Z,58.93
2019-05-21T17:52:32.101Z,73.97
2019-05-21T17:54:57.887Z,60.60
2019-05-21T17:57:23.982Z,57.57
2019-05-21T17:59:49.902Z,43.90
2019-05-21T18:02:15.821Z,51.73
2019-05-21T18:04:41.716Z,44.97
2019-05-21T18:07:08.303Z,40.63
2019-05-21T18:09:35.268Z,40.37
2019-05-21T18:12:01.445Z,40.90
2019-05-21T18:14:27.843Z,46.90
2019-05-21T18:16:53.742Z,43.63
2019-05-21T18:19:20.065Z,52.60
2019-05-21T18:21:46.555Z,53.50
2019-05-21T18:24:12.367Z,43.33
2019-05-21T18:26:38.269Z,35.10
2019-05-21T18:29:04.079Z,40.90
2019-05-21T18:31:29.874Z,22.03
2019-05-21T18:33:55.701Z,30.83
2019-05-21T18:36:21.498Z,34.03
2019-05-21T18:38:47.334Z,24.00
2019-05-21T18:41:13.130Z,33.77
2019-05-21T18:43:38.938Z,32.27
2019-05-21T18:46:04.741Z,25.80
2019-05-21T18:48:30.522Z,31.17
2019-05-21T18:50:56.413Z,36.87
2019-05-21T18:53:22.201Z,27.97
2019-05-21T18:55:48.029Z,22.00
2019-05-21T18:58:16.963Z,21.77
2019-05-21T19:00:41.520Z,20.33
2019-05-21T19:03:07.297Z,21.97
2019-05-21T19:05:33.093Z,19.27
2019-05-21T19:07:58.933Z,20.10
2019-05-21T19:10:24.713Z,14.13
2019-05-21T19:12:50.495Z,14.27
2019-05-21T19:15:16.612Z,16.93
2019-05-21T19:17:42.417Z,14.70
2019-05-21T19:20:10.823Z,17.50
2019-05-21T19:22:36.620Z,17.73
2019-05-21T19:25:04.748Z,17.97
2019-05-21T19:27:30.644Z,25.27
2019-05-21T19:29:56.428Z,13.20
2019-05-21T19:32:22.239Z,16.00
2019-05-21T19:34:48.022Z,18.43
2019-05-21T19:37:13.852Z,15.93
2019-05-21T19:39:40.033Z,21.60
2019-05-21T19:42:05.862Z,23.87
2019-05-21T19:44:31.861Z,21.90
2019-05-21T19:46:57.666Z,15.90
2019-05-21T19:49:23.634Z,19.30
2019-05-21T19:51:49.484Z,20.03
2019-05-21T19:54:15.579Z,16.67
2019-05-21T19:56:41.593Z,20.30
2019-05-21T19:59:07.538Z,15.13
2019-05-21T20:01:34.196Z,23.63
2019-05-21T20:04:00.622Z,18.27
2019-05-21T20:06:26.950Z,33.90
2019-05-21T20:08:53.771Z,25.07
2019-05-21T20:11:19.750Z,16.47
2019-05-21T20:13:45.681Z,26.07
2019-05-21T20:16:12.763Z,15.63
2019-05-21T20:18:39.032Z,15.10
2019-05-21T20:21:06.762Z,18.70
2019-05-21T20:23:32.757Z,17.47
2019-05-21T20:25:58.759Z,20.20
2019-05-21T20:28:24.788Z,15.13
2019-05-21T20:30:51.135Z,16.80
2019-05-21T20:33:17.442Z,16.33
2019-05-21T20:35:44.065Z,16.93
2019-05-21T20:38:09.863Z,15.87
2019-05-21T20:40:35.859Z,24.27
2019-05-21T20:43:02.565Z,14.40
2019-05-21T20:45:29.473Z,14.87
2019-05-21T20:47:56.093Z,15.47
2019-05-21T20:50:26.256Z,17.03
2019-05-21T20:52:52.525Z,15.53
2019-05-21T20:55:18.319Z,14.60
2019-05-21T20:57:45.277Z,20.33
2019-05-21T21:00:16.909Z,16.93
2019-05-21T21:02:44.014Z,16.37
2019-05-21T21:05:11.819Z,16.10
2019-05-21T21:07:38.204Z,17.80
2019-05-21T21:10:08.423Z,15.87
2019-05-21T21:12:34.344Z,22.93
2019-05-21T21:15:00.526Z,13.50
2019-05-21T21:17:26.513Z,17.27
2019-05-21T21:19:52.595Z,13.93
2019-05-21T21:22:19.785Z,12.90
2019-05-21T21:24:45.705Z,15.67
2019-05-21T21:27:13.679Z,13.80
2019-05-21T21:29:39.557Z,14.97
2019-05-21T21:32:09.187Z,15.53
2019-05-21T21:34:35.465Z,13.33
2019-05-21T21:37:01.780Z,18.97
2019-05-21T21:39:27.696Z,13.33
2019-05-21T21:41:55.228Z,13.13
2019-05-21T21:44:33.990Z,14.00
2019-05-21T21:46:53.807Z,10.90
2019-05-21T21:49:19.673Z,13.30
2019-05-21T21:51:45.474Z,14.60
2019-05-21T21:54:11.404Z,14.33
2019-05-21T21:56:37.207Z,13.13
2019-05-21T21:59:03.028Z,15.13
2019-05-21T22:01:36.323Z,12.07
2019-05-21T22:04:04.000Z,14.83
2019-05-21T22:06:30.862Z,12.83
2019-05-21T22:08:56.667Z,18.53
2019-05-21T22:11:23.156Z,14.07
2019-05-21T22:13:49.065Z,16.40
2019-05-21T22:16:15.752Z,11.83
2019-05-21T22:18:42.048Z,13.97
2019-05-21T22:21:08.175Z,15.77
2019-05-21T22:23:34.290Z,12.67
2019-05-21T22:26:00.426Z,15.13
2019-05-21T22:28:30.140Z,14.10
2019-05-21T22:30:56.346Z,19.60
2019-05-21T22:33:23.086Z,16.73
2019-05-21T22:35:48.881Z,16.73
2019-05-21T22:38:14.889Z,15.13
2019-05-21T22:40:40.706Z,12.57
2019-05-21T22:43:06.580Z,16.03
2019-05-21T22:45:32.448Z,14.57
2019-05-21T22:47:58.227Z,13.33
2019-05-21T22:50:25.047Z,14.30
2019-05-21T22:52:50.828Z,10.67
2019-05-21T22:55:16.630Z,12.40
2019-05-21T22:57:42.422Z,14.60
2019-05-21T23:00:09.133Z,14.93
2019-05-21T23:02:36.849Z,14.90
2019-05-21T23:05:05.647Z,15.87
2019-05-21T23:07:31.479Z,19.27
2019-05-21T23:09:57.961Z,17.53
2019-05-21T23:12:24.071Z,13.87
2019-05-21T23:14:50.276Z,17.90
2019-05-21T23:17:16.110Z,17.60
2019-05-21T23:19:41.894Z,18.47
2019-05-21T23:22:09.109Z,23.53
2019-05-21T23:24:36.109Z,22.77
2019-05-21T23:27:04.035Z,25.20
2019-05-21T23:29:30.047Z,20.20
2019-05-21T23:31:55.844Z,17.07
2019-05-21T23:34:21.651Z,16.53
2019-05-21T23:36:47.552Z,18.83
2019-05-21T23:39:15.336Z,18.77
2019-05-21T23:41:41.265Z,22.50
2019-05-21T23:44:07.562Z,22.20
2019-05-21T23:46:33.765Z,21.57
2019-05-21T23:48:59.556Z,22.57
2019-05-21T23:51:25.485Z,23.77
2019-05-21T23:53:52.069Z,23.60
2019-05-21T23:56:17.980Z,22.73
2019-05-21T23:58:43.779Z,24.00
